Alexander Maersk — OZRC2 — position and weather

sailwx.info

Track history (hours):
 
Tides and Currents Weather Stations Pressure Air Temp Water Temp Dewpoint Dewpoint Depression Visibility Wind Speed Wind Dir Waves Ship Positions

Alexander Maersk

Last reported at 2017-Aug-19 06:22 UTC. Time now 2017-Aug-19 07:39 UTC.
Position N 34°44' E 010°46'.

Length 155 m; draft 6.8 m.

Type: Cargo ship. MMSI: 219470000.

Date/timePositionNaut miles runAvg speedWind from/ knotsBaromVisibWave heightAir tempDewpointWater temp
2017-Aug-19 06:22N 34°44' E 010°46'2 4.6
2017-Aug-19 06:00N 34°42' E 010°48'2 4.5
2017-Aug-19 05:30N 34°41' E 010°49'1 2.7
2017-Aug-19 05:00N 34°40' E 010°51'0 0.1
2017-Aug-19 04:30N 34°40' E 010°51'0 0.0
2017-Aug-19 03:54N 34°40' E 010°51'0 0.0
2017-Aug-18 04:27N 34°40' E 010°51'0 0.0
2017-Aug-18 03:54N 34°40' E 010°51'17 2.1
2017-Aug-17 19:29N 34°23' E 010°54'4 9.0
2017-Aug-17 18:59N 34°20' E 010°58'4 8.9
2017-Aug-17 18:29N 34°17' E 011°03'4 8.9
2017-Aug-17 17:59N 34°15' E 011°07'4 8.9
2017-Aug-17 17:30N 34°13' E 011°12'4 8.4
2017-Aug-17 17:00N 34°09' E 011°14'4 8.7
2017-Aug-17 16:30N 34°06' E 011°18'4 8.2
2017-Aug-17 16:00N 34°05' E 011°23'4 8.6
2017-Aug-17 15:30N 34°05' E 011°28'4 8.7
2017-Aug-17 15:00N 34°05' E 011°34'4 8.6
2017-Aug-17 14:30N 34°05' E 011°39'5 8.6
2017-Aug-17 13:58N 34°05' E 011°44'5 8.8
2017-Aug-17 13:24N 34°04' E 011°50'4 8.8
2017-Aug-17 12:59N 34°04' E 011°55'4 8.7
2017-Aug-17 12:30N 34°04' E 011°60'4 8.7
2017-Aug-17 12:00N 34°04' E 012°05'4 8.6
2017-Aug-17 11:30N 34°04' E 012°10'4 8.6
2017-Aug-17 11:00N 34°04' E 012°15'10 8.7
2017-Aug-17 09:54N 34°03' E 012°27'3 8.7
2017-Aug-17 09:30N 34°03' E 012°31'4 8.7
2017-Aug-17 09:00N 34°03' E 012°36'4 8.6
2017-Aug-17 08:30N 34°03' E 012°42'4 8.4
2017-Aug-17 08:00N 34°01' E 012°46'4 8.5
2017-Aug-17 07:30N 33°59' E 012°51'4 8.5
2017-Aug-17 07:00N 33°56' E 012°55'4 8.5
2017-Aug-17 06:30N 33°54' E 012°59'4 8.6
2017-Aug-17 06:00N 33°52' E 013°04'4 8.7
2017-Aug-17 05:30N 33°50' E 013°08'4 8.8
2017-Aug-17 05:00N 33°48' E 013°13'4 8.8
2017-Aug-17 04:30N 33°45' E 013°17'5 8.9
2017-Aug-17 03:58N 33°43' E 013°23'5 9.0
2017-Aug-17 03:22N 33°40' E 013°28'5 8.9
2017-Aug-17 02:51N 33°38' E 013°33'24 8.8
2017-Aug-17 00:09N 33°21' E 013°53'4 9.2
2017-Aug-16 23:43N 33°18' E 013°55'2 9.2
2017-Aug-16 23:30N 33°16' E 013°56'39 9.0
2017-Aug-16 19:13N 32°41' E 014°17'2 4.0
2017-Aug-16 18:48N 32°41' E 014°15'1 0.0
2017-Aug-15 14:17N 32°41' E 014°15'0 0.0
2017-Aug-15 13:59N 32°41' E 014°15'0 0.0
2017-Aug-15 11:19N 32°41' E 014°15'1 2.1
2017-Aug-15 11:00N 32°41' E 014°15'3 0.3
2017-Aug-14 23:44N 32°42' E 014°19'0 0.1
2017-Aug-14 23:29N 32°42' E 014°19'53 1.0
2017-Aug-12 20:19N 32°24' E 015°18'10 7.8
2017-Aug-12 19:00N 32°34' E 015°16'4 8.1
2017-Aug-12 18:29N 32°38' E 015°15'4 8.0
2017-Aug-12 18:00N 32°42' E 015°14'19 8.1
2017-Aug-12 15:39N 33°01' E 015°10'1 8.3
2017-Aug-12 15:30N 33°02' E 015°10'4 8.3
2017-Aug-12 15:00N 33°06' E 015°09'15 8.7
2017-Aug-12 13:16N 33°21' E 015°06'5 9.0
2017-Aug-12 12:42N 33°26' E 015°05'4 9.1
2017-Aug-12 12:18N 33°29' E 015°05'3 9.2
2017-Aug-12 11:59N 33°32' E 015°04'21 9.0
2017-Aug-12 09:41N 33°53' E 014°59'2 9.0
2017-Aug-12 09:30N 33°54' E 014°59'5 9.0
2017-Aug-12 08:56N 33°59' E 014°58'4 9.0
2017-Aug-12 08:30N 34°03' E 014°57'5 9.0
2017-Aug-12 08:00N 34°08' E 014°56'4 8.9
2017-Aug-12 07:30N 34°12' E 014°56'4 8.6
2017-Aug-12 06:59N 34°16' E 014°55'5 8.6
2017-Aug-12 06:27N 34°21' E 014°54'4 8.5
2017-Aug-12 06:00N 34°25' E 014°53'4 8.3
2017-Aug-12 05:30N 34°29' E 014°52'4 8.2
2017-Aug-12 05:00N 34°33' E 014°51'4 8.1
2017-Aug-12 04:30N 34°37' E 014°50'4 8.0
2017-Aug-12 04:00N 34°41' E 014°49'4 8.0
2017-Aug-12 03:30N 34°45' E 014°49'4 7.9
2017-Aug-12 03:00N 34°48' E 014°48'4 7.9
2017-Aug-12 02:30N 34°52' E 014°47'4 7.8
2017-Aug-12 01:56N 34°57' E 014°46'3 7.8
2017-Aug-12 01:30N 35°00' E 014°45'4 7.9
2017-Aug-12 01:00N 35°04' E 014°44'4 7.9
2017-Aug-12 00:30N 35°08' E 014°44'8 8.0
2017-Aug-11 23:33N 35°15' E 014°42'0 8.2
2017-Aug-11 23:30N 35°16' E 014°42'19 8.1
2017-Aug-11 21:13N 35°34' E 014°38'4 8.0
2017-Aug-11 20:44N 35°38' E 014°37'3 8.0
2017-Aug-11 20:22N 35°41' E 014°36'3 7.9
2017-Aug-11 20:00N 35°44' E 014°36'4 7.7
2017-Aug-11 19:30N 35°47' E 014°35'3 5.3
2017-Aug-11 18:58N 35°49' E 014°32'0 0.2
2017-Aug-11 18:28N 35°49' E 014°32'0 0.0
2017-Aug-11 17:58N 35°49' E 014°32'0 0.0
2017-Aug-11 17:19N 35°49' E 014°32'0 0.0
2017-Aug-11 16:55N 35°49' E 014°32'0 0.0
2017-Aug-11 16:25N 35°49' E 014°32'0 0.0
2017-Aug-11 15:58N 35°49' E 014°32'0 0.0
2017-Aug-11 15:28N 35°49' E 014°32'0 0.0
2017-Aug-11 14:55N 35°49' E 014°32'0 0.0
2017-Aug-11 13:58N 35°49' E 014°32'0 0.0
2017-Aug-11 13:28N 35°49' E 014°32'0 0.0
2017-Aug-11 12:49N 35°49' E 014°32'0 0.0
2017-Aug-11 02:28N 35°49' E 014°32'0 0.0
2017-Aug-10 21:28N 35°49' E 014°32'0 0.0
2017-Aug-10 20:58N 35°49' E 014°32'0 0.0
2017-Aug-10 20:28N 35°49' E 014°32'0 0.0
2017-Aug-10 19:58N 35°49' E 014°32'0 0.0
2017-Aug-10 19:22N 35°49' E 014°32'0 0.0
2017-Aug-10 18:58N 35°49' E 014°32'0 0.0
2017-Aug-10 18:22N 35°49' E 014°32'0 0.0
2017-Aug-10 17:58N 35°49' E 014°32'0 0.0
2017-Aug-10 16:43N 35°49' E 014°32'0 0.0
2017-Aug-10 16:22N 35°49' E 014°32'0 0.0
2017-Aug-10 15:31N 35°49' E 014°32'0 0.0
2017-Aug-10 15:22N 35°49' E 014°32'0 0.0
2017-Aug-10 14:58N 35°49' E 014°32'0 0.1
2017-Aug-10 14:30N 35°49' E 014°32'2 3.4
2017-Aug-10 14:00N 35°49' E 014°34'1 1.7
2017-Aug-10 13:30N 35°49' E 014°35'2 4.8
2017-Aug-10 13:00N 35°49' E 014°38'5 9.8
2017-Aug-10 12:30N 35°51' E 014°43'1 1.8
2017-Aug-10 11:58N 35°51' E 014°45'0 0.0
2017-Aug-10 11:28N 35°51' E 014°45'0 0.1
2017-Aug-10 10:55N 35°51' E 014°45'0 0.0
2017-Aug-10 10:28N 35°51' E 014°45'0 0.0
2017-Aug-10 09:58N 35°51' E 014°45'0 0.0
2017-Aug-10 09:28N 35°51' E 014°45'0 0.0
2017-Aug-10 08:58N 35°51' E 014°45'0 0.0
2017-Aug-10 08:28N 35°51' E 014°45'0 0.0
2017-Aug-10 07:58N 35°51' E 014°45'0 0.1
2017-Aug-10 07:28N 35°51' E 014°45'0 0.0
2017-Aug-10 06:58N 35°51' E 014°45'0 0.1
2017-Aug-10 06:28N 35°51' E 014°45'0 0.1
2017-Aug-10 05:58N 35°51' E 014°45'0 0.0
2017-Aug-10 05:28N 35°52' E 014°45'0 0.0
2017-Aug-10 04:58N 35°52' E 014°45'0 0.0
2017-Aug-10 04:28N 35°52' E 014°44'0 0.0
2017-Aug-10 03:58N 35°52' E 014°44'0 0.0
2017-Aug-10 03:28N 35°52' E 014°44'0 0.0
2017-Aug-10 02:58N 35°52' E 014°44'0 0.1
2017-Aug-10 02:28N 35°51' E 014°44'0 0.0
2017-Aug-10 01:58N 35°51' E 014°44'0 0.0
2017-Aug-10 01:28N 35°51' E 014°44'0 0.0
2017-Aug-10 00:58N 35°51' E 014°44'0 0.0
2017-Aug-10 00:28N 35°51' E 014°44'0 0.0
2017-Aug-09 23:55N 35°51' E 014°44'0 0.1
2017-Aug-09 23:28N 35°51' E 014°44'0 0.1
2017-Aug-09 22:58N 35°51' E 014°44'0 0.1
2017-Aug-09 22:28N 35°51' E 014°45'0 0.1
2017-Aug-09 21:58N 35°51' E 014°45'0 0.0
2017-Aug-09 21:28N 35°51' E 014°45'0 0.0
2017-Aug-09 20:58N 35°51' E 014°45'0 0.0
2017-Aug-09 20:28N 35°51' E 014°45'0 0.0
2017-Aug-09 19:58N 35°51' E 014°45'0 0.0
2017-Aug-09 19:28N 35°51' E 014°45'0 0.0
2017-Aug-09 18:55N 35°51' E 014°45'0 0.0
2017-Aug-09 18:28N 35°51' E 014°45'0 0.0
2017-Aug-09 17:58N 35°51' E 014°45'0 0.0
2017-Aug-09 17:28N 35°51' E 014°45'0 0.0
2017-Aug-09 16:58N 35°51' E 014°45'0 0.0
2017-Aug-09 16:28N 35°52' E 014°45'0 0.0
2017-Aug-09 15:58N 35°52' E 014°45'0 0.0
2017-Aug-09 15:28N 35°52' E 014°45'0 0.0
2017-Aug-09 14:58N 35°52' E 014°45'0 0.0
2017-Aug-09 14:28N 35°52' E 014°45'0 0.0
2017-Aug-09 13:58N 35°52' E 014°45'0 0.0
2017-Aug-09 13:25N 35°52' E 014°44'0 0.1
2017-Aug-09 12:58N 35°52' E 014°44'0 0.0
2017-Aug-09 12:28N 35°52' E 014°44'0 0.0
2017-Aug-09 11:58N 35°52' E 014°44'0 0.0
2017-Aug-09 11:28N 35°52' E 014°44'0 0.1
2017-Aug-09 10:58N 35°52' E 014°44'0 0.0
2017-Aug-09 10:28N 35°52' E 014°44'0 0.1
2017-Aug-09 09:58N 35°51' E 014°44'0 0.1
2017-Aug-09 09:28N 35°51' E 014°44'0 0.0
2017-Aug-09 08:58N 35°51' E 014°44'0 0.0
2017-Aug-09 08:28N 35°51' E 014°44'0 0.1
2017-Aug-09 07:58N 35°51' E 014°44'0 0.0
2017-Aug-09 07:28N 35°51' E 014°44'0 0.0
2017-Aug-09 06:58N 35°51' E 014°44'0 0.1
2017-Aug-09 06:28N 35°51' E 014°44'  
Track history (hours):
 
Tides and Currents Weather Stations Pressure Air Temp Water Temp Dewpoint Dewpoint Depression Visibility Wind Speed Wind Dir Waves Ship Positions

Alexander Maersk

Last reported at 2017-Aug-19 06:22 UTC. Time now 2017-Aug-19 07:39 UTC.
Position N 34°44' E 010°46'.

Length 155 m; draft 6.8 m.

Type: Cargo ship. MMSI: 219470000.

Date/timePositionNaut miles runAvg speedWind from/ knotsBaromVisibWave heightAir tempDewpointWater temp
2017-Aug-19 06:22N 34°44' E 010°46'2 4.6
2017-Aug-19 06:00N 34°42' E 010°48'2 4.5
2017-Aug-19 05:30N 34°41' E 010°49'1 2.7
2017-Aug-19 05:00N 34°40' E 010°51'0 0.1
2017-Aug-19 04:30N 34°40' E 010°51'0 0.0
2017-Aug-19 03:54N 34°40' E 010°51'0 0.0
2017-Aug-18 04:27N 34°40' E 010°51'0 0.0
2017-Aug-18 03:54N 34°40' E 010°51'17 2.1
2017-Aug-17 19:29N 34°23' E 010°54'4 9.0
2017-Aug-17 18:59N 34°20' E 010°58'4 8.9
2017-Aug-17 18:29N 34°17' E 011°03'4 8.9
2017-Aug-17 17:59N 34°15' E 011°07'4 8.9
2017-Aug-17 17:30N 34°13' E 011°12'4 8.4
2017-Aug-17 17:00N 34°09' E 011°14'4 8.7
2017-Aug-17 16:30N 34°06' E 011°18'4 8.2
2017-Aug-17 16:00N 34°05' E 011°23'4 8.6
2017-Aug-17 15:30N 34°05' E 011°28'4 8.7
2017-Aug-17 15:00N 34°05' E 011°34'4 8.6
2017-Aug-17 14:30N 34°05' E 011°39'5 8.6
2017-Aug-17 13:58N 34°05' E 011°44'5 8.8
2017-Aug-17 13:24N 34°04' E 011°50'4 8.8
2017-Aug-17 12:59N 34°04' E 011°55'4 8.7
2017-Aug-17 12:30N 34°04' E 011°60'4 8.7
2017-Aug-17 12:00N 34°04' E 012°05'4 8.6
2017-Aug-17 11:30N 34°04' E 012°10'4 8.6
2017-Aug-17 11:00N 34°04' E 012°15'10 8.7
2017-Aug-17 09:54N 34°03' E 012°27'3 8.7
2017-Aug-17 09:30N 34°03' E 012°31'4 8.7
2017-Aug-17 09:00N 34°03' E 012°36'4 8.6
2017-Aug-17 08:30N 34°03' E 012°42'4 8.4
2017-Aug-17 08:00N 34°01' E 012°46'4 8.5
2017-Aug-17 07:30N 33°59' E 012°51'4 8.5
2017-Aug-17 07:00N 33°56' E 012°55'4 8.5
2017-Aug-17 06:30N 33°54' E 012°59'4 8.6
2017-Aug-17 06:00N 33°52' E 013°04'4 8.7
2017-Aug-17 05:30N 33°50' E 013°08'4 8.8
2017-Aug-17 05:00N 33°48' E 013°13'4 8.8
2017-Aug-17 04:30N 33°45' E 013°17'5 8.9
2017-Aug-17 03:58N 33°43' E 013°23'5 9.0
2017-Aug-17 03:22N 33°40' E 013°28'5 8.9
2017-Aug-17 02:51N 33°38' E 013°33'24 8.8
2017-Aug-17 00:09N 33°21' E 013°53'4 9.2
2017-Aug-16 23:43N 33°18' E 013°55'2 9.2
2017-Aug-16 23:30N 33°16' E 013°56'39 9.0
2017-Aug-16 19:13N 32°41' E 014°17'2 4.0
2017-Aug-16 18:48N 32°41' E 014°15'1 0.0
2017-Aug-15 14:17N 32°41' E 014°15'0 0.0
2017-Aug-15 13:59N 32°41' E 014°15'0 0.0
2017-Aug-15 11:19N 32°41' E 014°15'1 2.1
2017-Aug-15 11:00N 32°41' E 014°15'3 0.3
2017-Aug-14 23:44N 32°42' E 014°19'0 0.1
2017-Aug-14 23:29N 32°42' E 014°19'53 1.0
2017-Aug-12 20:19N 32°24' E 015°18'10 7.8
2017-Aug-12 19:00N 32°34' E 015°16'4 8.1
2017-Aug-12 18:29N 32°38' E 015°15'4 8.0
2017-Aug-12 18:00N 32°42' E 015°14'19 8.1
2017-Aug-12 15:39N 33°01' E 015°10'1 8.3
2017-Aug-12 15:30N 33°02' E 015°10'4 8.3
2017-Aug-12 15:00N 33°06' E 015°09'15 8.7
2017-Aug-12 13:16N 33°21' E 015°06'5 9.0
2017-Aug-12 12:42N 33°26' E 015°05'4 9.1
2017-Aug-12 12:18N 33°29' E 015°05'3 9.2
2017-Aug-12 11:59N 33°32' E 015°04'21 9.0
2017-Aug-12 09:41N 33°53' E 014°59'2 9.0
2017-Aug-12 09:30N 33°54' E 014°59'5 9.0
2017-Aug-12 08:56N 33°59' E 014°58'4 9.0
2017-Aug-12 08:30N 34°03' E 014°57'5 9.0
2017-Aug-12 08:00N 34°08' E 014°56'4 8.9
2017-Aug-12 07:30N 34°12' E 014°56'4 8.6
2017-Aug-12 06:59N 34°16' E 014°55'5 8.6
2017-Aug-12 06:27N 34°21' E 014°54'4 8.5
2017-Aug-12 06:00N 34°25' E 014°53'4 8.3
2017-Aug-12 05:30N 34°29' E 014°52'4 8.2
2017-Aug-12 05:00N 34°33' E 014°51'4 8.1
2017-Aug-12 04:30N 34°37' E 014°50'4 8.0
2017-Aug-12 04:00N 34°41' E 014°49'4 8.0
2017-Aug-12 03:30N 34°45' E 014°49'4 7.9
2017-Aug-12 03:00N 34°48' E 014°48'4 7.9
2017-Aug-12 02:30N 34°52' E 014°47'4 7.8
2017-Aug-12 01:56N 34°57' E 014°46'3 7.8
2017-Aug-12 01:30N 35°00' E 014°45'4 7.9
2017-Aug-12 01:00N 35°04' E 014°44'4 7.9
2017-Aug-12 00:30N 35°08' E 014°44'8 8.0
2017-Aug-11 23:33N 35°15' E 014°42'0 8.2
2017-Aug-11 23:30N 35°16' E 014°42'19 8.1
2017-Aug-11 21:13N 35°34' E 014°38'4 8.0
2017-Aug-11 20:44N 35°38' E 014°37'3 8.0
2017-Aug-11 20:22N 35°41' E 014°36'3 7.9
2017-Aug-11 20:00N 35°44' E 014°36'4 7.7
2017-Aug-11 19:30N 35°47' E 014°35'3 5.3
2017-Aug-11 18:58N 35°49' E 014°32'0 0.2
2017-Aug-11 18:28N 35°49' E 014°32'0 0.0
2017-Aug-11 17:58N 35°49' E 014°32'0 0.0
2017-Aug-11 17:19N 35°49' E 014°32'0 0.0
2017-Aug-11 16:55N 35°49' E 014°32'0 0.0
2017-Aug-11 16:25N 35°49' E 014°32'0 0.0
2017-Aug-11 15:58N 35°49' E 014°32'0 0.0
2017-Aug-11 15:28N 35°49' E 014°32'0 0.0
2017-Aug-11 14:55N 35°49' E 014°32'0 0.0
2017-Aug-11 13:58N 35°49' E 014°32'0 0.0
2017-Aug-11 13:28N 35°49' E 014°32'0 0.0
2017-Aug-11 12:49N 35°49' E 014°32'0 0.0
2017-Aug-11 02:28N 35°49' E 014°32'0 0.0
2017-Aug-10 21:28N 35°49' E 014°32'0 0.0
2017-Aug-10 20:58N 35°49' E 014°32'0 0.0
2017-Aug-10 20:28N 35°49' E 014°32'0 0.0
2017-Aug-10 19:58N 35°49' E 014°32'0 0.0
2017-Aug-10 19:22N 35°49' E 014°32'0 0.0
2017-Aug-10 18:58N 35°49' E 014°32'0 0.0
2017-Aug-10 18:22N 35°49' E 014°32'0 0.0
2017-Aug-10 17:58N 35°49' E 014°32'0 0.0
2017-Aug-10 16:43N 35°49' E 014°32'0 0.0
2017-Aug-10 16:22N 35°49' E 014°32'0 0.0
2017-Aug-10 15:31N 35°49' E 014°32'0 0.0
2017-Aug-10 15:22N 35°49' E 014°32'0 0.0
2017-Aug-10 14:58N 35°49' E 014°32'0 0.1
2017-Aug-10 14:30N 35°49' E 014°32'2 3.4
2017-Aug-10 14:00N 35°49' E 014°34'1 1.7
2017-Aug-10 13:30N 35°49' E 014°35'2 4.8
2017-Aug-10 13:00N 35°49' E 014°38'5 9.8
2017-Aug-10 12:30N 35°51' E 014°43'1 1.8
2017-Aug-10 11:58N 35°51' E 014°45'0 0.0
2017-Aug-10 11:28N 35°51' E 014°45'0 0.1
2017-Aug-10 10:55N 35°51' E 014°45'0 0.0
2017-Aug-10 10:28N 35°51' E 014°45'0 0.0
2017-Aug-10 09:58N 35°51' E 014°45'0 0.0
2017-Aug-10 09:28N 35°51' E 014°45'0 0.0
2017-Aug-10 08:58N 35°51' E 014°45'0 0.0
2017-Aug-10 08:28N 35°51' E 014°45'0 0.0
2017-Aug-10 07:58N 35°51' E 014°45'0 0.1
2017-Aug-10 07:28N 35°51' E 014°45'0 0.0
2017-Aug-10 06:58N 35°51' E 014°45'0 0.1
2017-Aug-10 06:28N 35°51' E 014°45'0 0.1
2017-Aug-10 05:58N 35°51' E 014°45'0 0.0
2017-Aug-10 05:28N 35°52' E 014°45'0 0.0
2017-Aug-10 04:58N 35°52' E 014°45'0 0.0
2017-Aug-10 04:28N 35°52' E 014°44'0 0.0
2017-Aug-10 03:58N 35°52' E 014°44'0 0.0
2017-Aug-10 03:28N 35°52' E 014°44'0 0.0
2017-Aug-10 02:58N 35°52' E 014°44'0 0.1
2017-Aug-10 02:28N 35°51' E 014°44'0 0.0
2017-Aug-10 01:58N 35°51' E 014°44'0 0.0
2017-Aug-10 01:28N 35°51' E 014°44'0 0.0
2017-Aug-10 00:58N 35°51' E 014°44'0 0.0
2017-Aug-10 00:28N 35°51' E 014°44'0 0.0
2017-Aug-09 23:55N 35°51' E 014°44'0 0.1
2017-Aug-09 23:28N 35°51' E 014°44'0 0.1
2017-Aug-09 22:58N 35°51' E 014°44'0 0.1
2017-Aug-09 22:28N 35°51' E 014°45'0 0.1
2017-Aug-09 21:58N 35°51' E 014°45'0 0.0
2017-Aug-09 21:28N 35°51' E 014°45'0 0.0
2017-Aug-09 20:58N 35°51' E 014°45'0 0.0
2017-Aug-09 20:28N 35°51' E 014°45'0 0.0
2017-Aug-09 19:58N 35°51' E 014°45'0 0.0
2017-Aug-09 19:28N 35°51' E 014°45'0 0.0
2017-Aug-09 18:55N 35°51' E 014°45'0 0.0
2017-Aug-09 18:28N 35°51' E 014°45'0 0.0
2017-Aug-09 17:58N 35°51' E 014°45'0 0.0
2017-Aug-09 17:28N 35°51' E 014°45'0 0.0
2017-Aug-09 16:58N 35°51' E 014°45'0 0.0
2017-Aug-09 16:28N 35°52' E 014°45'0 0.0
2017-Aug-09 15:58N 35°52' E 014°45'0 0.0
2017-Aug-09 15:28N 35°52' E 014°45'0 0.0
2017-Aug-09 14:58N 35°52' E 014°45'0 0.0
2017-Aug-09 14:28N 35°52' E 014°45'0 0.0
2017-Aug-09 13:58N 35°52' E 014°45'0 0.0
2017-Aug-09 13:25N 35°52' E 014°44'0 0.1
2017-Aug-09 12:58N 35°52' E 014°44'0 0.0
2017-Aug-09 12:28N 35°52' E 014°44'0 0.0
2017-Aug-09 11:58N 35°52' E 014°44'0 0.0
2017-Aug-09 11:28N 35°52' E 014°44'0 0.1
2017-Aug-09 10:58N 35°52' E 014°44'0 0.0
2017-Aug-09 10:28N 35°52' E 014°44'0 0.1
2017-Aug-09 09:58N 35°51' E 014°44'0 0.1
2017-Aug-09 09:28N 35°51' E 014°44'0 0.0
2017-Aug-09 08:58N 35°51' E 014°44'0 0.0
2017-Aug-09 08:28N 35°51' E 014°44'0 0.1
2017-Aug-09 07:58N 35°51' E 014°44'0 0.0
2017-Aug-09 07:28N 35°51' E 014°44'0 0.0
2017-Aug-09 06:58N 35°51' E 014°44'0 0.1
2017-Aug-09 06:28N 35°51' E 014°44'  

Dump ship's entire track history